Time;durP1;ratioP1;P1;durP2;ratioP2;P2;SDS_P1;SDS_P2;PMS_P1;PMS_P2;Temp;Humidity;BMP_temperature;BMP_pressure;BME280_temperature;BME280_humidity;BME280_pressure;Samples;Min_cycle;Max_cycle;Signal;HPM_P1;HPM_P2
2021/03/20 00:01:06;;;;;;;18.95;17.20;;;30.20;91.80;;;;;;5066762;28;20229;-48
2021/03/20 00:03:37;;;;;;;18.75;16.92;;;30.20;91.80;;;;;;5064675;28;20197;-50
2021/03/20 00:06:07;;;;;;;17.48;16.02;;;30.20;92.20;;;;;;5062691;28;20185;-50
2021/03/20 00:08:45;;;;;;;18.23;16.63;;;30.20;91.80;;;;;;5021195;28;20257;-49
2021/03/20 00:11:15;;;;;;;18.50;16.70;;;30.20;91.90;;;;;;5021253;28;20683;-50
2021/03/20 00:13:46;;;;;;;18.63;16.95;;;30.20;91.90;;;;;;5021643;28;20202;-48
2021/03/20 00:16:16;;;;;;;18.33;16.55;;;30.20;92.00;;;;;;5020651;28;20203;-52
2021/03/20 00:18:47;;;;;;;19.13;17.52;;;30.30;92.10;;;;;;5020859;28;20338;-52
2021/03/20 00:21:17;;;;;;;18.20;16.55;;;30.30;92.20;;;;;;5018920;28;20227;-55
2021/03/20 00:23:49;;;;;;;19.50;17.85;;;30.30;92.20;;;;;;5023170;28;20198;-50
2021/03/20 00:26:19;;;;;;;19.58;17.77;;;30.40;92.40;;;;;;5022826;28;20199;-53
2021/03/20 00:28:50;;;;;;;19.30;17.58;;;30.30;92.40;;;;;;5023279;28;21644;-55
2021/03/20 00:31:20;;;;;;;18.33;16.73;;;30.40;92.40;;;;;;5020530;28;20635;-53
2021/03/20 00:33:51;;;;;;;19.08;17.33;;;30.40;92.50;;;;;;5016915;28;20211;-50
2021/03/20 00:36:21;;;;;;;18.05;16.55;;;30.40;92.50;;;;;;5017132;28;20587;-53
2021/03/20 00:39:08;;;;;;;19.90;17.75;;;30.50;92.60;;;;;;5020866;28;20858;-50
2021/03/20 00:41:39;;;;;;;18.90;17.08;;;30.50;92.50;;;;;;5050440;28;20670;-52
2021/03/20 00:44:09;;;;;;;20.55;18.65;;;30.60;92.50;;;;;;5060717;28;20279;-52
2021/03/20 00:46:40;;;;;;;19.92;18.13;;;30.60;92.50;;;;;;5052435;28;20210;-54
2021/03/20 00:49:10;;;;;;;20.08;18.30;;;30.60;92.50;;;;;;5050621;28;20206;-52
2021/03/20 00:51:40;;;;;;;19.60;17.80;;;30.70;92.50;;;;;;5050478;28;20233;-51
2021/03/20 00:54:12;;;;;;;20.50;18.50;;;30.80;92.40;;;;;;5050383;28;20198;-53
2021/03/20 00:56:43;;;;;;;19.75;18.02;;;30.80;92.30;;;;;;5062237;28;20213;-51
2021/03/20 00:59:14;;;;;;;20.10;18.40;;;30.80;92.30;;;;;;5054561;28;20206;-53
2021/03/20 01:01:44;;;;;;;19.55;17.65;;;30.90;92.30;;;;;;5053259;28;20280;-50
2021/03/20 01:04:14;;;;;;;19.08;17.30;;;30.90;92.30;;;;;;5054380;28;20225;-51
2021/03/20 01:06:45;;;;;;;19.27;17.67;;;31.00;92.30;;;;;;5062805;28;20190;-53
2021/03/20 01:09:28;;;;;;;19.35;17.55;;;31.00;92.20;;;;;;5056319;28;20312;-51
2021/03/20 01:11:58;;;;;;;19.88;18.17;;;31.00;92.00;;;;;;5056774;28;20194;-52
2021/03/20 01:14:29;;;;;;;19.27;17.48;;;31.10;91.90;;;;;;5050392;28;20293;-51
2021/03/20 01:16:59;;;;;;;19.95;18.10;;;31.20;91.80;;;;;;5051936;28;20206;-50
2021/03/20 01:19:29;;;;;;;17.63;16.20;;;31.20;91.70;;;;;;5058225;28;20205;-50
2021/03/20 01:22:00;;;;;;;18.70;17.05;;;31.30;91.60;;;;;;5063980;28;20661;-51
2021/03/20 01:24:31;;;;;;;19.08;17.38;;;31.30;91.40;;;;;;5053368;28;20198;-51
2021/03/20 01:27:01;;;;;;;22.70;17.52;;;31.40;91.20;;;;;;5059036;28;20208;-50
2021/03/20 01:29:32;;;;;;;18.50;16.90;;;31.40;91.20;;;;;;5064059;28;20200;-52
2021/03/20 01:32:02;;;;;;;19.83;18.05;;;31.50;91.10;;;;;;5051106;28;20263;-51
2021/03/20 01:34:33;;;;;;;20.67;18.88;;;31.60;91.10;;;;;;5054258;28;20617;-52
2021/03/20 01:37:03;;;;;;;21.02;18.83;;;31.60;90.80;;;;;;5055544;28;20194;-51
2021/03/20 01:39:50;;;;;;;19.10;17.40;;;31.70;90.80;;;;;;5049849;28;20788;-51
2021/03/20 01:42:21;;;;;;;18.60;16.80;;;31.70;90.80;;;;;;5061844;28;20197;-53
2021/03/20 01:45:06;;;;;;;22.70;20.40;;;31.80;90.80;;;;;;5058440;28;20586;-53
2021/03/20 01:47:38;;;;;;;20.15;17.80;;;31.90;90.10;;;;;;5054454;28;20197;-53
2021/03/20 01:50:11;;;;;;;18.58;16.73;;;31.90;90.00;;;;;;5057655;28;20230;-50
2021/03/20 01:52:42;;;;;;;18.45;16.92;;;32.00;90.00;;;;;;5000382;28;20692;-49
2021/03/20 01:55:15;;;;;;;19.58;17.98;;;32.10;89.70;;;;;;4997137;28;20266;-51
2021/03/20 01:57:46;;;;;;;20.20;18.30;;;32.10;89.00;;;;;;4996761;28;20856;-55
2021/03/20 02:00:18;;;;;;;21.40;19.40;;;32.20;88.00;;;;;;4992898;28;20659;-53
2021/03/20 02:02:48;;;;;;;19.48;17.77;;;32.20;87.70;;;;;;4988714;28;20208;-55
2021/03/20 02:05:21;;;;;;;19.17;17.42;;;32.20;87.40;;;;;;4993659;28;20471;-54
2021/03/20 02:07:52;;;;;;;19.60;17.80;;;32.30;87.80;;;;;;4993419;28;20224;-55
2021/03/20 02:10:24;;;;;;;19.52;17.73;;;32.30;87.50;;;;;;4986993;28;20206;-54
2021/03/20 02:12:56;;;;;;;19.00;17.40;;;32.30;87.30;;;;;;4999613;28;20208;-52
2021/03/20 02:15:28;;;;;;;21.33;19.23;;;32.40;87.10;;;;;;5000105;28;20215;-53
2021/03/20 02:18:03;;;;;;;22.13;19.83;;;32.40;86.00;;;;;;4995283;28;20216;-53
2021/03/20 02:21:03;;;;;;;22.65;20.70;;;32.50;85.10;;;;;;4959079;28;20215;-53
2021/03/20 02:24:14;;;;;;;22.38;20.48;;;32.60;84.20;;;;;;4983511;28;20256;-55
2021/03/20 02:27:10;;;;;;;21.40;19.52;;;32.60;83.90;;;;;;4980032;28;20238;-52
2021/03/20 02:30:08;;;;;;;22.58;20.52;;;32.70;83.20;;;;;;4945070;29;20922;-54
2021/03/20 02:32:49;;;;;;;22.00;20.00;;;32.70;82.10;;;;;;4945472;29;20224;-53
2021/03/20 02:35:25;;;;;;;18.60;17.02;;;32.70;81.90;;;;;;4944014;29;20233;-51
2021/03/20 02:38:00;;;;;;;19.83;18.02;;;32.80;83.10;;;;;;4945271;29;20194;-56
2021/03/20 02:40:39;;;;;;;20.25;18.35;;;32.80;83.40;;;;;;4945795;29;20300;-51
2021/03/20 02:43:12;;;;;;;20.20;18.30;;;32.90;83.00;;;;;;4945561;28;20902;-51
2021/03/20 02:45:43;;;;;;;22.73;20.75;;;33.00;82.90;;;;;;4948655;29;20256;-52
2021/03/20 02:48:22;;;;;;;22.27;20.27;;;33.10;81.10;;;;;;4949166;29;20684;-51
2021/03/20 02:50:56;;;;;;;22.40;20.42;;;33.10;78.50;;;;;;4956880;28;20286;-50
2021/03/20 02:53:28;;;;;;;20.60;18.80;;;33.20;78.30;;;;;;4997230;28;20248;-52
2021/03/20 02:55:59;;;;;;;19.42;17.70;;;33.20;79.30;;;;;;4968030;28;20239;-51
2021/03/20 02:58:31;;;;;;;21.40;19.50;;;33.20;79.70;;;;;;5018954;28;20273;-51
2021/03/20 03:01:03;;;;;;;20.05;18.13;;;33.30;79.30;;;;;;5027438;28;20274;-52
2021/03/20 03:03:36;;;;;;;19.13;17.42;;;33.40;79.40;;;;;;5026527;28;20225;-53
2021/03/20 03:06:09;;;;;;;19.40;17.70;;;33.50;78.60;;;;;;4971551;28;20610;-54
2021/03/20 03:08:40;;;;;;;21.30;19.23;;;33.60;78.50;;;;;;4984180;28;20278;-50
2021/03/20 03:11:13;;;;;;;21.20;19.08;;;33.70;77.80;;;;;;4957655;28;20233;-51
2021/03/20 03:13:45;;;;;;;24.58;21.90;;;33.80;78.20;;;;;;4954512;28;20213;-55
2021/03/20 03:16:17;;;;;;;20.67;18.88;;;33.90;76.20;;;;;;4932306;29;20230;-54
2021/03/20 03:18:50;;;;;;;19.55;17.63;;;33.90;76.50;;;;;;4915441;29;20214;-51
2021/03/20 03:21:21;;;;;;;19.23;17.55;;;34.10;76.70;;;;;;4922318;29;20210;-53
2021/03/20 03:23:51;;;;;;;21.58;19.58;;;34.20;76.90;;;;;;4903569;29;20262;-54
2021/03/20 03:26:23;;;;;;;19.25;17.75;;;34.30;75.70;;;;;;4903376;29;20206;-50
2021/03/20 03:28:58;;;;;;;22.38;20.45;;;34.30;75.60;;;;;;4937197;29;20634;-53
2021/03/20 03:31:31;;;;;;;21.65;19.70;;;34.40;74.10;;;;;;4941461;29;20214;-52
2021/03/20 03:34:03;;;;;;;19.35;17.67;;;34.40;74.60;;;;;;4932080;29;20760;-52
2021/03/20 03:36:36;;;;;;;19.02;17.33;;;34.40;75.20;;;;;;4941528;28;20228;-51
2021/03/20 03:39:11;;;;;;;22.20;20.13;;;34.50;75.20;;;;;;4964237;28;20216;-53
2021/03/20 03:41:41;;;;;;;21.35;19.52;;;34.60;73.60;;;;;;4975785;28;20210;-56
2021/03/20 03:44:12;;;;;;;20.85;19.05;;;34.60;73.60;;;;;;4996043;28;20247;-55
2021/03/20 03:46:44;;;;;;;20.95;19.25;;;34.60;73.00;;;;;;4995686;28;20226;-51
2021/03/20 03:49:18;;;;;;;18.63;17.08;;;34.60;73.50;;;;;;5004822;28;20306;-54
2021/03/20 03:51:48;;;;;;;18.02;16.48;;;34.70;74.00;;;;;;5020694;28;20230;-51
2021/03/20 03:54:18;;;;;;;19.20;17.60;;;34.80;74.70;;;;;;5033430;28;20663;-52
2021/03/20 03:57:20;;;;;;;18.38;16.77;;;34.90;74.30;;;;;;5065646;28;20291;-49
2021/03/20 04:00:01;;;;;;;17.50;16.00;;;35.00;73.80;;;;;;5063632;28;20637;-52
2021/03/20 04:02:40;;;;;;;19.73;18.02;;;35.10;73.70;;;;;;5060386;28;20223;-53
2021/03/20 04:05:13;;;;;;;19.38;17.75;;;35.20;71.40;;;;;;4980646;28;20204;-52
2021/03/20 04:07:50;;;;;;;21.40;19.38;;;35.30;71.40;;;;;;4971122;28;20204;-53
2021/03/20 04:10:25;;;;;;;21.20;19.30;;;35.30;70.20;;;;;;4932041;29;20210;-52
2021/03/20 04:12:59;;;;;;;20.48;18.73;;;35.30;70.00;;;;;;4901729;29;20233;-53
2021/03/20 04:15:38;;;;;;;19.08;17.40;;;35.30;69.30;;;;;;4903703;29;20327;-54
2021/03/20 04:18:11;;;;;;;22.00;20.00;;;35.30;70.00;;;;;;4871490;29;20216;-53
2021/03/20 04:20:44;;;;;;;19.40;17.80;;;35.30;68.90;;;;;;4815384;29;20329;-54
2021/03/20 04:23:17;;;;;;;21.85;19.92;;;35.30;69.30;;;;;;4820083;29;20560;-55
2021/03/20 04:25:49;;;;;;;22.75;20.75;;;35.30;69.60;;;;;;4793175;29;20214;-50
2021/03/20 04:28:24;;;;;;;22.20;20.00;;;35.30;69.10;;;;;;4784026;29;20225;-50
2021/03/20 04:30:59;;;;;;;21.20;19.20;;;35.30;69.40;;;;;;4782695;29;20214;-54
2021/03/20 04:33:31;;;;;;;22.02;19.98;;;35.20;69.80;;;;;;4779904;30;20238;-53
2021/03/20 04:36:03;;;;;;;20.27;18.45;;;35.20;69.90;;;;;;4811046;29;20269;-53
2021/03/20 04:38:34;;;;;;;21.38;19.58;;;35.20;70.00;;;;;;4869658;29;20725;-53
2021/03/20 04:41:05;;;;;;;21.42;19.52;;;35.20;69.40;;;;;;4876452;29;20252;-53
2021/03/20 04:43:36;;;;;;;23.65;21.23;;;35.20;69.60;;;;;;4856547;29;20205;-51
2021/03/20 04:46:07;;;;;;;21.30;19.27;;;35.10;69.40;;;;;;4801619;29;20238;-55
2021/03/20 04:48:38;;;;;;;23.08;20.85;;;35.10;69.60;;;;;;4811750;29;20210;-52
2021/03/20 04:51:11;;;;;;;22.13;19.98;;;35.10;69.40;;;;;;4828184;29;20247;-50
2021/03/20 04:53:41;;;;;;;18.35;16.67;;;35.10;69.70;;;;;;4852856;29;20216;-52
2021/03/20 04:56:15;;;;;;;21.23;19.15;;;35.10;69.90;;;;;;4859015;29;20235;-50
2021/03/20 04:58:48;;;;;;;20.63;18.58;;;35.10;69.40;;;;;;4851603;29;20359;-54
2021/03/20 05:01:20;;;;;;;20.70;18.85;;;35.10;68.80;;;;;;4817188;29;20222;-54
2021/03/20 05:03:55;;;;;;;22.83;20.63;;;35.20;69.10;;;;;;4827121;29;20214;-52
2021/03/20 05:06:27;;;;;;;20.92;19.13;;;35.10;67.70;;;;;;4869546;29;20635;-49
2021/03/20 05:08:59;;;;;;;19.73;17.98;;;35.10;68.60;;;;;;4869597;29;20216;-50
2021/03/20 05:11:32;;;;;;;19.42;17.52;;;35.00;69.30;;;;;;4868517;29;20222;-51
2021/03/20 05:14:05;;;;;;;21.00;19.20;;;35.10;69.80;;;;;;4882921;29;20297;-52
2021/03/20 05:16:38;;;;;;;18.65;17.15;;;35.10;68.80;;;;;;4936662;28;20225;-50
2021/03/20 05:19:09;;;;;;;19.30;17.60;;;35.20;69.10;;;;;;4964222;28;20213;-53
2021/03/20 05:21:41;;;;;;;20.60;18.60;;;35.20;69.00;;;;;;4964389;28;20219;-49
2021/03/20 05:24:16;;;;;;;20.35;18.60;;;35.30;68.80;;;;;;4970340;28;20231;-50
2021/03/20 05:26:46;;;;;;;20.88;18.98;;;35.30;68.20;;;;;;4985951;28;20210;-50
2021/03/20 05:29:16;;;;;;;20.40;18.50;;;35.30;68.30;;;;;;5001100;28;20194;-49
2021/03/20 05:31:46;;;;;;;17.98;16.38;;;35.40;68.80;;;;;;5045982;28;20202;-51
2021/03/20 05:34:21;;;;;;;22.17;20.17;;;35.40;68.70;;;;;;5064977;28;20190;-55
2021/03/20 05:36:53;;;;;;;20.65;18.83;;;35.50;67.50;;;;;;5065480;28;20207;-52
2021/03/20 05:39:24;;;;;;;20.30;18.40;;;35.50;67.60;;;;;;5065299;28;20884;-52
2021/03/20 05:42:03;;;;;;;17.58;16.08;;;35.50;67.60;;;;;;5064297;28;20198;-49
2021/03/20 05:44:50;;;;;;;19.98;18.10;;;35.50;67.80;;;;;;5062163;28;20186;-50
2021/03/20 05:47:33;;;;;;;20.35;18.63;;;35.60;66.70;;;;;;5065006;28;20182;-50
2021/03/20 05:50:18;;;;;;;19.90;18.20;;;35.60;66.50;;;;;;5058990;28;20202;-52
2021/03/20 05:52:57;;;;;;;20.58;18.77;;;35.60;67.20;;;;;;5023685;28;20199;-50
2021/03/20 05:55:33;;;;;;;19.10;17.35;;;35.60;66.10;;;;;;5024101;28;20197;-49
2021/03/20 05:58:17;;;;;;;20.00;18.27;;;35.60;66.40;;;;;;4999475;28;20798;-50
2021/03/20 06:00:50;;;;;;;19.20;17.60;;;35.60;66.90;;;;;;4998045;28;20678;-50
2021/03/20 06:03:31;;;;;;;18.13;16.48;;;35.60;66.80;;;;;;4988936;28;20215;-50
2021/03/20 06:06:04;;;;;;;19.75;17.95;;;35.70;66.50;;;;;;4987025;28;20287;-49
2021/03/20 06:08:44;;;;;;;18.77;16.90;;;35.70;66.60;;;;;;5001216;28;20204;-52
2021/03/20 06:11:25;;;;;;;16.25;14.88;;;35.80;66.40;;;;;;4996482;28;20199;-49
2021/03/20 06:14:08;;;;;;;18.98;17.38;;;35.90;67.70;;;;;;4977272;28;20210;-50
2021/03/20 06:16:42;;;;;;;19.55;17.85;;;35.90;65.60;;;;;;4979187;28;20236;-50
2021/03/20 06:19:43;;;;;;;22.08;20.17;;;36.00;65.50;;;;;;4980854;28;20205;-52
2021/03/20 06:22:35;;;;;;;21.00;19.00;;;36.00;63.80;;;;;;4977560;28;20208;-49
2021/03/20 06:25:39;;;;;;;20.65;18.75;;;35.90;64.50;;;;;;4943868;29;20297;-52
2021/03/20 06:28:10;;;;;;;21.52;19.75;;;35.90;64.80;;;;;;4951863;28;20697;-54
2021/03/20 06:30:44;;;;;;;22.27;20.15;;;35.90;64.70;;;;;;4985132;28;20414;-52
2021/03/20 06:33:18;;;;;;;20.92;19.08;;;35.90;65.30;;;;;;4984677;28;20212;-54
2021/03/20 06:35:51;;;;;;;18.67;17.08;;;35.90;65.50;;;;;;4979583;28;20225;-49
2021/03/20 06:38:29;;;;;;;20.42;18.55;;;35.80;65.80;;;;;;4947703;28;20209;-51
2021/03/20 06:41:04;;;;;;;18.88;17.20;;;35.80;65.70;;;;;;4970736;28;20201;-53
2021/03/20 06:43:52;;;;;;;20.75;18.85;;;35.80;66.10;;;;;;4971289;28;20198;-53
2021/03/20 06:46:27;;;;;;;18.38;16.67;;;35.80;66.20;;;;;;4971794;28;20211;-54
2021/03/20 06:48:58;;;;;;;20.05;18.15;;;35.80;66.90;;;;;;4988182;28;20296;-53
2021/03/20 06:51:29;;;;;;;19.33;17.52;;;35.80;65.70;;;;;;5025345;28;20232;-52
2021/03/20 06:54:01;;;;;;;17.83;16.25;;;35.70;66.00;;;;;;5028435;28;20215;-54
2021/03/20 06:56:35;;;;;;;20.02;17.92;;;35.80;66.30;;;;;;5029921;28;20813;-50
2021/03/20 06:59:12;;;;;;;20.33;18.42;;;35.70;66.20;;;;;;4970604;28;20306;-51
2021/03/20 07:01:45;;;;;;;19.17;17.55;;;35.70;66.30;;;;;;4921878;29;21089;-53
2021/03/20 07:04:35;;;;;;;21.23;19.17;;;35.70;66.20;;;;;;4921889;29;20215;-52
2021/03/20 07:07:21;;;;;;;18.65;17.02;;;35.70;66.50;;;;;;4934761;29;20297;-56
2021/03/20 07:09:53;;;;;;;17.63;16.02;;;35.80;66.70;;;;;;4972852;28;20203;-50
2021/03/20 07:12:25;;;;;;;17.92;16.33;;;35.80;67.10;;;;;;4988226;28;20838;-51
2021/03/20 07:14:56;;;;;;;17.67;16.08;;;35.80;67.40;;;;;;4991403;28;20204;-53
2021/03/20 07:17:37;;;;;;;19.52;17.60;;;35.90;66.70;;;;;;4988174;28;20572;-53
2021/03/20 07:20:10;;;;;;;15.65;14.25;;;35.90;65.80;;;;;;4985492;28;20861;-54
2021/03/20 07:22:42;;;;;;;17.13;15.73;;;36.00;66.00;;;;;;4989559;28;20731;-50
2021/03/20 07:25:26;;;;;;;20.27;18.48;;;36.10;65.40;;;;;;4993109;28;20200;-51
2021/03/20 07:28:08;;;;;;;17.67;16.27;;;36.30;63.00;;;;;;4994275;28;20657;-52
2021/03/20 07:30:41;;;;;;;19.92;18.08;;;36.30;63.60;;;;;;4985441;28;20231;-51
2021/03/20 07:33:36;;;;;;;20.38;18.48;;;36.40;63.70;;;;;;5017472;28;20244;-49
2021/03/20 07:36:21;;;;;;;19.95;18.20;;;36.40;62.60;;;;;;5011544;28;20214;-50
2021/03/20 07:39:15;;;;;;;18.88;17.17;;;36.50;62.50;;;;;;5030900;28;20199;-50
2021/03/20 07:41:51;;;;;;;19.05;17.38;;;36.50;63.20;;;;;;5025889;28;20297;-51
2021/03/20 07:44:55;;;;;;;18.60;17.00;;;36.60;62.30;;;;;;5014629;28;20258;-49
2021/03/20 07:47:26;;;;;;;19.00;17.40;;;36.60;62.40;;;;;;5021780;28;20955;-49
2021/03/20 07:50:27;;;;;;;21.58;19.55;;;36.60;62.20;;;;;;5023859;28;20194;-50
2021/03/20 07:53:12;;;;;;;19.00;17.02;;;36.70;60.50;;;;;;5010307;28;20222;-52
2021/03/20 07:56:04;;;;;;;17.38;15.73;;;36.70;61.80;;;;;;5031547;28;20262;-54
2021/03/20 07:58:42;;;;;;;16.58;15.18;;;36.70;61.90;;;;;;5054943;28;20194;-52
2021/03/20 08:01:16;;;;;;;18.02;16.42;;;36.80;62.10;;;;;;5065976;28;20252;-53
2021/03/20 08:03:53;;;;;;;17.58;15.98;;;36.90;60.80;;;;;;5043382;28;20701;-53
2021/03/20 08:06:24;;;;;;;15.60;14.30;;;37.00;61.40;;;;;;5042160;28;20625;-52
2021/03/20 08:09:24;;;;;;;20.83;18.98;;;37.10;61.80;;;;;;5004063;28;20258;-50
2021/03/20 08:12:09;;;;;;;19.23;17.52;;;37.10;60.30;;;;;;5002946;28;20218;-50
2021/03/20 08:14:56;;;;;;;17.92;16.52;;;37.20;59.90;;;;;;5003328;28;20274;-50
2021/03/20 08:17:27;;;;;;;18.27;16.67;;;37.20;59.80;;;;;;4966050;28;20217;-53
2021/03/20 08:19:58;;;;;;;18.85;17.05;;;37.30;59.60;;;;;;4965769;28;20877;-54
2021/03/20 08:22:51;;;;;;;18.10;16.40;;;37.40;59.40;;;;;;4967334;28;20239;-53
2021/03/20 08:25:45;;;;;;;20.75;19.02;;;37.40;59.50;;;;;;4967161;28;20901;-51
2021/03/20 08:28:34;;;;;;;18.08;16.52;;;37.50;59.40;;;;;;4928362;28;20612;-53
2021/03/20 08:31:08;;;;;;;21.33;19.15;;;37.50;59.40;;;;;;4958973;28;20854;-52
2021/03/20 08:33:51;;;;;;;18.02;16.63;;;37.50;58.70;;;;;;4952181;28;20281;-50
2021/03/20 08:36:32;;;;;;;17.17;15.68;;;37.50;59.00;;;;;;4949791;28;20721;-51
2021/03/20 08:39:07;;;;;;;17.90;16.27;;;37.50;59.40;;;;;;4930991;28;20785;-51
2021/03/20 08:41:46;;;;;;;18.33;16.58;;;37.60;59.60;;;;;;4906761;29;20743;-51
2021/03/20 08:44:35;;;;;;;18.35;16.58;;;37.70;59.20;;;;;;4906868;29;20216;-52
2021/03/20 08:47:16;;;;;;;16.83;15.32;;;37.70;59.30;;;;;;4892484;29;20299;-51
2021/03/20 08:49:57;;;;;;;19.83;18.13;;;37.90;59.70;;;;;;4930224;29;20206;-51
2021/03/20 08:52:28;;;;;;;17.73;16.23;;;37.90;58.70;;;;;;4928732;28;20212;-49
2021/03/20 08:55:36;;;;;;;18.00;16.30;;;37.90;58.90;;;;;;4951041;28;20217;-50
2021/03/20 08:58:10;;;;;;;21.48;19.55;;;38.00;59.00;;;;;;4928100;28;20331;-52
2021/03/20 09:00:45;;;;;;;17.35;15.88;;;38.00;58.40;;;;;;4962602;28;20276;-50
2021/03/20 09:03:16;;;;;;;16.90;15.50;;;38.00;59.00;;;;;;4976563;28;20195;-50
2021/03/20 09:05:49;;;;;;;17.35;15.75;;;37.90;58.90;;;;;;5003260;28;20208;-53
2021/03/20 09:08:23;;;;;;;18.67;17.08;;;38.00;59.20;;;;;;5001243;28;20208;-52
2021/03/20 09:11:00;;;;;;;19.23;17.63;;;37.90;58.90;;;;;;5000466;28;20193;-52
2021/03/20 09:13:34;;;;;;;16.45;14.93;;;37.90;58.80;;;;;;5051853;28;20205;-50
2021/03/20 09:16:08;;;;;;;16.92;15.48;;;37.90;59.60;;;;;;5062983;28;20284;-51
2021/03/20 09:18:39;;;;;;;15.77;14.32;;;37.90;59.50;;;;;;5021752;28;20238;-51
2021/03/20 09:21:11;;;;;;;15.93;14.63;;;37.90;59.60;;;;;;4965241;28;20208;-52
2021/03/20 09:23:43;;;;;;;18.25;16.33;;;37.90;59.80;;;;;;4965747;28;20658;-52
2021/03/20 09:26:15;;;;;;;17.23;15.75;;;38.00;59.60;;;;;;4963431;28;20803;-54
2021/03/20 09:29:10;;;;;;;16.92;15.43;;;38.00;59.50;;;;;;4908209;29;20203;-50
2021/03/20 09:31:59;;;;;;;14.48;13.27;;;38.00;59.10;;;;;;4907699;29;20297;-51
2021/03/20 09:34:37;;;;;;;15.65;14.23;;;38.10;59.80;;;;;;4889039;29;20211;-53
2021/03/20 09:37:25;;;;;;;15.40;14.00;;;38.10;59.80;;;;;;4870350;29;20231;-51
2021/03/20 09:39:55;;;;;;;15.38;14.05;;;38.10;59.70;;;;;;4869561;29;20251;-50
2021/03/20 09:42:34;;;;;;;15.40;14.10;;;38.20;59.50;;;;;;4876889;29;20706;-50
2021/03/20 09:45:06;;;;;;;15.10;13.80;;;38.20;59.20;;;;;;4908363;29;20203;-50
2021/03/20 09:47:50;;;;;;;16.02;14.38;;;38.20;59.30;;;;;;4907373;29;20239;-49
2021/03/20 09:50:35;;;;;;;16.10;14.75;;;38.30;59.10;;;;;;4907881;29;20237;-50
2021/03/20 09:53:37;;;;;;;15.27;13.60;;;38.30;58.70;;;;;;4940858;28;20209;-53
2021/03/20 09:56:31;;;;;;;14.20;13.00;;;38.40;58.80;;;;;;4945527;29;20229;-54
2021/03/20 09:59:01;;;;;;;16.52;15.02;;;38.40;58.80;;;;;;4957585;28;20203;-51
2021/03/20 10:01:47;;;;;;;14.13;12.80;;;38.40;58.30;;;;;;5042867;28;20240;-51
2021/03/20 10:04:34;;;;;;;13.90;12.57;;;38.40;58.40;;;;;;5060104;28;20212;-53
2021/03/20 10:07:39;;;;;;;14.27;13.02;;;38.40;58.40;;;;;;5056022;28;20212;-55
2021/03/20 10:10:44;;;;;;;16.50;15.20;;;38.40;58.40;;;;;;5063688;28;20235;-51
2021/03/20 10:13:17;;;;;;;14.35;13.02;;;38.40;58.10;;;;;;5050703;28;20193;-51
2021/03/20 10:16:04;;;;;;;15.18;13.68;;;38.40;57.80;;;;;;5065053;28;20620;-52
2021/03/20 10:18:54;;;;;;;13.30;12.20;;;38.40;57.90;;;;;;5063493;28;20182;-50
2021/03/20 10:21:27;;;;;;;14.02;12.73;;;38.30;57.80;;;;;;5063145;28;20284;-53
2021/03/20 10:24:13;;;;;;;14.75;13.32;;;38.30;57.80;;;;;;5000162;28;20327;-52
2021/03/20 10:26:45;;;;;;;14.38;13.13;;;38.20;57.70;;;;;;4996717;28;20356;-54
2021/03/20 10:29:30;;;;;;;15.43;14.02;;;38.20;57.80;;;;;;5002025;28;20200;-51
2021/03/20 10:32:06;;;;;;;13.45;12.25;;;38.30;57.80;;;;;;5001753;28;20206;-54
2021/03/20 10:34:48;;;;;;;13.95;12.65;;;38.30;57.80;;;;;;5001181;28;20242;-51
2021/03/20 10:37:19;;;;;;;13.63;12.48;;;38.40;57.70;;;;;;5000587;28;20663;-54
2021/03/20 10:39:50;;;;;;;13.25;11.98;;;38.50;57.30;;;;;;5002430;28;20908;-54
2021/03/20 10:42:23;;;;;;;12.45;11.38;;;38.60;57.10;;;;;;5003087;28;20238;-55
2021/03/20 10:44:55;;;;;;;13.13;11.95;;;38.60;57.00;;;;;;5001143;28;20733;-54
2021/03/20 10:47:29;;;;;;;12.40;11.25;;;38.70;56.80;;;;;;5001698;28;20365;-51
2021/03/20 10:50:04;;;;;;;12.85;11.65;;;38.70;56.70;;;;;;4992989;28;20221;-53
2021/03/20 10:52:36;;;;;;;12.82;11.65;;;38.70;56.70;;;;;;5003096;28;20200;-51
2021/03/20 10:55:19;;;;;;;12.45;11.25;;;38.70;56.60;;;;;;5036073;28;20201;-52
2021/03/20 10:57:54;;;;;;;12.70;11.57;;;38.70;56.60;;;;;;5058216;28;20295;-52
2021/03/20 11:00:31;;;;;;;11.43;10.52;;;38.60;56.60;;;;;;5061750;28;20233;-51
2021/03/20 11:03:11;;;;;;;11.88;10.77;;;38.50;56.60;;;;;;5065098;28;20238;-51
2021/03/20 11:05:42;;;;;;;11.25;10.18;;;38.40;56.70;;;;;;5065889;28;20197;-51
2021/03/20 11:08:15;;;;;;;10.93;10.02;;;38.20;56.70;;;;;;5068086;28;20253;-51
2021/03/20 11:10:47;;;;;;;11.15;10.05;;;38.00;57.00;;;;;;5019740;28;20207;-53
2021/03/20 11:13:34;;;;;;;11.85;9.98;;;37.80;57.20;;;;;;5012978;28;20230;-51
2021/03/20 11:16:07;;;;;;;10.38;9.40;;;37.50;57.70;;;;;;5023177;28;20202;-54
2021/03/20 11:18:42;;;;;;;11.82;10.73;;;37.30;58.10;;;;;;5016175;28;20215;-54
2021/03/20 11:21:23;;;;;;;11.05;10.15;;;37.10;58.60;;;;;;5025430;28;20644;-54
2021/03/20 11:23:58;;;;;;;10.60;9.68;;;36.90;60.10;;;;;;5024435;28;20203;-54
2021/03/20 11:26:41;;;;;;;10.38;9.38;;;36.70;59.90;;;;;;5010349;28;20865;-51
2021/03/20 11:29:15;;;;;;;10.57;9.57;;;36.40;60.40;;;;;;5009028;28;20195;-53
2021/03/20 11:31:51;;;;;;;9.30;8.40;;;36.30;60.80;;;;;;5009225;28;20207;-53
2021/03/20 11:34:26;;;;;;;10.00;9.05;;;36.10;61.60;;;;;;5016719;28;20281;-52
2021/03/20 11:36:57;;;;;;;8.80;8.05;;;35.90;61.70;;;;;;5051469;28;20249;-54
2021/03/20 11:39:27;;;;;;;8.50;7.70;;;35.80;62.20;;;;;;5051180;28;20190;-49
2021/03/20 11:42:01;;;;;;;8.95;8.05;;;35.60;62.50;;;;;;5050882;28;20646;-50
2021/03/20 11:44:33;;;;;;;8.80;8.10;;;35.40;63.00;;;;;;5067957;28;20197;-51
2021/03/20 11:47:05;;;;;;;8.93;8.02;;;35.30;63.50;;;;;;5067727;28;20202;-53
2021/03/20 11:49:43;;;;;;;9.57;8.73;;;35.20;63.80;;;;;;5067919;28;20301;-52
2021/03/20 11:52:16;;;;;;;8.60;7.85;;;35.10;64.40;;;;;;5066060;28;20182;-51
2021/03/20 11:54:47;;;;;;;8.90;8.00;;;35.00;64.70;;;;;;5066397;28;20198;-49
2021/03/20 11:57:29;;;;;;;8.52;7.80;;;34.90;64.70;;;;;;5067009;28;20738;-52
2021/03/20 12:00:00;;;;;;;7.90;7.10;;;34.80;65.30;;;;;;5024674;28;20290;-50
2021/03/20 12:02:41;;;;;;;7.80;7.07;;;34.70;65.40;;;;;;5024938;28;20706;-52
2021/03/20 12:05:29;;;;;;;7.95;7.20;;;34.70;66.10;;;;;;5022589;28;20217;-49
2021/03/20 12:08:20;;;;;;;7.45;6.75;;;34.60;66.30;;;;;;5022866;28;20195;-51
2021/03/20 12:11:00;;;;;;;7.45;6.82;;;34.50;66.50;;;;;;5019993;28;20290;-51
2021/03/20 12:13:48;;;;;;;7.40;6.70;;;34.40;67.00;;;;;;5023881;28;20297;-52
2021/03/20 12:16:31;;;;;;;7.22;6.50;;;34.40;67.50;;;;;;5017692;28;20215;-51
2021/03/20 12:19:16;;;;;;;7.70;6.90;;;34.30;67.50;;;;;;5008095;28;20196;-53
2021/03/20 12:21:57;;;;;;;7.70;6.97;;;34.20;68.00;;;;;;5008080;28;20702;-49
2021/03/20 12:24:30;;;;;;;10.30;7.03;;;34.20;68.30;;;;;;5033170;28;20254;-50
2021/03/20 12:27:25;;;;;;;8.38;7.10;;;34.10;68.00;;;;;;5067466;28;20206;-49
2021/03/20 12:29:59;;;;;;;7.97;7.22;;;34.00;68.70;;;;;;5065313;28;20271;-50
2021/03/20 12:32:41;;;;;;;8.23;7.38;;;34.00;68.50;;;;;;5067267;28;20204;-49
2021/03/20 12:35:42;;;;;;;8.10;7.35;;;33.90;70.20;;;;;;5066970;28;20280;-49
2021/03/20 12:38:18;;;;;;;7.63;6.93;;;33.80;69.10;;;;;;5065426;28;20213;-49
2021/03/20 12:40:56;;;;;;;8.45;7.65;;;33.90;69.50;;;;;;5067039;28;20197;-51
2021/03/20 12:43:29;;;;;;;18.00;8.80;;;33.70;69.80;;;;;;5066224;28;20203;-52
2021/03/20 12:46:00;;;;;;;9.27;8.38;;;33.70;69.80;;;;;;5065050;28;20397;-54
2021/03/20 12:48:32;;;;;;;9.93;9.02;;;33.60;70.00;;;;;;5065059;28;20199;-52
2021/03/20 12:51:06;;;;;;;9.25;8.45;;;33.60;70.40;;;;;;5066146;28;20717;-54
2021/03/20 12:53:36;;;;;;;9.00;8.13;;;33.50;71.60;;;;;;5065968;28;20571;-52
2021/03/20 12:56:07;;;;;;;8.73;7.82;;;33.50;70.70;;;;;;5065129;28;20276;-55
2021/03/20 12:58:37;;;;;;;8.50;7.57;;;33.40;71.00;;;;;;5061949;28;20226;-49
2021/03/20 13:01:07;;;;;;;7.75;7.05;;;33.40;71.30;;;;;;5049819;28;20739;-51
2021/03/20 13:03:39;;;;;;;8.13;7.43;;;33.40;71.60;;;;;;5057800;28;20271;-50
2021/03/20 13:06:10;;;;;;;8.25;7.45;;;33.30;71.90;;;;;;5065684;28;20657;-51
2021/03/20 13:08:40;;;;;;;7.68;6.97;;;33.20;72.10;;;;;;5063247;28;20227;-51
2021/03/20 13:11:11;;;;;;;10.75;7.50;;;33.20;72.30;;;;;;5066384;28;20655;-52
2021/03/20 13:13:42;;;;;;;9.95;8.95;;;33.20;72.50;;;;;;5066053;28;20208;-51
2021/03/20 13:16:13;;;;;;;10.27;9.38;;;33.10;72.80;;;;;;5065807;28;20205;-52
2021/03/20 13:18:45;;;;;;;9.35;8.55;;;33.10;73.20;;;;;;5050262;28;20240;-52